Terminal Aerodrome Forecast
Issued by NWS

Home | Current Version | Previous Version | Text Only | Print | Product List | Glossary On
Versions: 1 2 3 4 5 6 7 8 9 10 11 12 13 14 15
000
FTUS45 KRIW 281100
TAFWRL
TAF
KWRL 281122Z 2812/0112 35010KT P6SM VCSH SCT045 BKN070
     FM281600 33006KT P6SM VCSH BKN045
     FM010100 VRB04KT P6SM -SN BKN030
     FM011000 VRB04KT P6SM SCT040=

USA.gov is the U.S. government's official web portal to all federal, state and local government web resources and services.